sensor_id;sensor_type;location;lat;lon;timestamp;P1;durP1;ratioP1;P2;durP2;ratioP2
74926;SDS011;63488;48.092;-1.640;2024-01-27T00:00:12;18.58;;;9.43;;
74926;SDS011;63488;48.092;-1.640;2024-01-27T00:02:39;15.25;;;9.20;;
74926;SDS011;63488;48.092;-1.640;2024-01-27T00:05:04;19.75;;;8.77;;
74926;SDS011;63488;48.092;-1.640;2024-01-27T00:07:30;19.65;;;9.63;;
74926;SDS011;63488;48.092;-1.640;2024-01-27T00:09:55;20.17;;;9.00;;
74926;SDS011;63488;48.092;-1.640;2024-01-27T00:12:21;16.80;;;9.45;;
74926;SDS011;63488;48.092;-1.640;2024-01-27T00:14:47;19.30;;;9.60;;
74926;SDS011;63488;48.092;-1.640;2024-01-27T00:17:12;17.02;;;9.55;;
74926;SDS011;63488;48.092;-1.640;2024-01-27T00:19:37;15.63;;;8.77;;
74926;SDS011;63488;48.092;-1.640;2024-01-27T00:22:03;14.57;;;7.93;;
74926;SDS011;63488;48.092;-1.640;2024-01-27T00:24:28;19.60;;;8.50;;
74926;SDS011;63488;48.092;-1.640;2024-01-27T00:26:53;16.95;;;8.02;;
74926;SDS011;63488;48.092;-1.640;2024-01-27T00:29:19;19.27;;;9.00;;
74926;SDS011;63488;48.092;-1.640;2024-01-27T00:31:44;15.30;;;8.23;;
74926;SDS011;63488;48.092;-1.640;2024-01-27T00:34:09;16.52;;;8.35;;
74926;SDS011;63488;48.092;-1.640;2024-01-27T00:36:35;17.50;;;8.25;;
74926;SDS011;63488;48.092;-1.640;2024-01-27T00:39:03;15.05;;;7.40;;
74926;SDS011;63488;48.092;-1.640;2024-01-27T00:41:29;15.10;;;7.60;;
74926;SDS011;63488;48.092;-1.640;2024-01-27T00:43:54;15.35;;;8.15;;
74926;SDS011;63488;48.092;-1.640;2024-01-27T00:46:20;16.33;;;8.27;;
74926;SDS011;63488;48.092;-1.640;2024-01-27T00:48:45;15.48;;;8.00;;
74926;SDS011;63488;48.092;-1.640;2024-01-27T00:51:10;15.90;;;7.38;;
74926;SDS011;63488;48.092;-1.640;2024-01-27T00:53:36;17.52;;;7.70;;
74926;SDS011;63488;48.092;-1.640;2024-01-27T00:56:01;14.52;;;7.20;;
74926;SDS011;63488;48.092;-1.640;2024-01-27T00:58:26;17.25;;;7.72;;
74926;SDS011;63488;48.092;-1.640;2024-01-27T01:00:52;13.95;;;7.45;;
74926;SDS011;63488;48.092;-1.640;2024-01-27T01:03:17;15.85;;;7.97;;
74926;SDS011;63488;48.092;-1.640;2024-01-27T01:05:42;16.45;;;8.20;;
74926;SDS011;63488;48.092;-1.640;2024-01-27T01:08:08;14.18;;;7.65;;
74926;SDS011;63488;48.092;-1.640;2024-01-27T01:10:33;16.17;;;8.30;;
74926;SDS011;63488;48.092;-1.640;2024-01-27T01:12:58;17.52;;;9.15;;
74926;SDS011;63488;48.092;-1.640;2024-01-27T01:15:24;16.02;;;8.30;;
74926;SDS011;63488;48.092;-1.640;2024-01-27T01:17:49;16.92;;;8.60;;
74926;SDS011;63488;48.092;-1.640;2024-01-27T01:20:14;17.20;;;8.43;;
74926;SDS011;63488;48.092;-1.640;2024-01-27T01:22:40;17.42;;;8.13;;
74926;SDS011;63488;48.092;-1.640;2024-01-27T01:25:05;15.50;;;8.60;;
74926;SDS011;63488;48.092;-1.640;2024-01-27T01:27:31;16.77;;;8.30;;
74926;SDS011;63488;48.092;-1.640;2024-01-27T01:29:56;18.05;;;8.57;;
74926;SDS011;63488;48.092;-1.640;2024-01-27T01:32:21;17.95;;;7.95;;
74926;SDS011;63488;48.092;-1.640;2024-01-27T01:34:47;15.05;;;7.95;;
74926;SDS011;63488;48.092;-1.640;2024-01-27T01:37:13;15.27;;;8.70;;
74926;SDS011;63488;48.092;-1.640;2024-01-27T01:39:38;15.98;;;8.50;;
74926;SDS011;63488;48.092;-1.640;2024-01-27T01:42:04;12.02;;;7.63;;
74926;SDS011;63488;48.092;-1.640;2024-01-27T01:44:29;15.43;;;7.88;;
74926;SDS011;63488;48.092;-1.640;2024-01-27T01:46:55;13.68;;;8.07;;
74926;SDS011;63488;48.092;-1.640;2024-01-27T01:49:20;15.50;;;8.18;;
74926;SDS011;63488;48.092;-1.640;2024-01-27T01:51:46;17.52;;;8.02;;
74926;SDS011;63488;48.092;-1.640;2024-01-27T01:54:11;15.75;;;8.32;;
74926;SDS011;63488;48.092;-1.640;2024-01-27T01:56:37;14.63;;;7.75;;
74926;SDS011;63488;48.092;-1.640;2024-01-27T01:59:02;17.33;;;8.35;;
74926;SDS011;63488;48.092;-1.640;2024-01-27T02:01:28;15.32;;;8.18;;
74926;SDS011;63488;48.092;-1.640;2024-01-27T02:03:53;15.02;;;8.02;;
74926;SDS011;63488;48.092;-1.640;2024-01-27T02:06:19;15.05;;;8.73;;
74926;SDS011;63488;48.092;-1.640;2024-01-27T02:08:44;16.50;;;9.80;;
74926;SDS011;63488;48.092;-1.640;2024-01-27T02:11:09;17.00;;;9.20;;
74926;SDS011;63488;48.092;-1.640;2024-01-27T02:13:35;19.52;;;11.52;;
74926;SDS011;63488;48.092;-1.640;2024-01-27T02:16:00;16.85;;;10.13;;
74926;SDS011;63488;48.092;-1.640;2024-01-27T02:18:26;20.10;;;10.20;;
74926;SDS011;63488;48.092;-1.640;2024-01-27T02:20:51;16.63;;;9.45;;
74926;SDS011;63488;48.092;-1.640;2024-01-27T02:23:17;14.63;;;9.23;;
74926;SDS011;63488;48.092;-1.640;2024-01-27T02:25:42;18.35;;;9.02;;
74926;SDS011;63488;48.092;-1.640;2024-01-27T02:28:07;14.02;;;8.75;;
74926;SDS011;63488;48.092;-1.640;2024-01-27T02:30:33;14.40;;;8.15;;
74926;SDS011;63488;48.092;-1.640;2024-01-27T02:32:58;16.42;;;8.48;;
74926;SDS011;63488;48.092;-1.640;2024-01-27T02:35:23;13.13;;;8.00;;
74926;SDS011;63488;48.092;-1.640;2024-01-27T02:37:49;15.38;;;7.85;;
74926;SDS011;63488;48.092;-1.640;2024-01-27T02:40:14;14.48;;;7.93;;
74926;SDS011;63488;48.092;-1.640;2024-01-27T02:42:40;16.05;;;7.72;;
74926;SDS011;63488;48.092;-1.640;2024-01-27T02:45:09;13.70;;;7.72;;
74926;SDS011;63488;48.092;-1.640;2024-01-27T02:47:34;12.68;;;7.45;;
74926;SDS011;63488;48.092;-1.640;2024-01-27T02:50:00;14.07;;;7.13;;
74926;SDS011;63488;48.092;-1.640;2024-01-27T02:52:25;14.90;;;6.93;;
74926;SDS011;63488;48.092;-1.640;2024-01-27T02:54:51;13.65;;;7.05;;
74926;SDS011;63488;48.092;-1.640;2024-01-27T02:57:16;14.65;;;7.78;;
74926;SDS011;63488;48.092;-1.640;2024-01-27T02:59:44;15.73;;;7.57;;
74926;SDS011;63488;48.092;-1.640;2024-01-27T03:02:10;18.98;;;9.18;;
74926;SDS011;63488;48.092;-1.640;2024-01-27T03:04:35;16.42;;;8.65;;
74926;SDS011;63488;48.092;-1.640;2024-01-27T03:07:00;13.60;;;7.60;;
74926;SDS011;63488;48.092;-1.640;2024-01-27T03:09:26;15.32;;;7.63;;
74926;SDS011;63488;48.092;-1.640;2024-01-27T03:11:51;13.68;;;7.00;;
74926;SDS011;63488;48.092;-1.640;2024-01-27T03:14:17;12.90;;;7.07;;
74926;SDS011;63488;48.092;-1.640;2024-01-27T03:16:43;13.82;;;6.38;;
74926;SDS011;63488;48.092;-1.640;2024-01-27T03:19:08;11.98;;;6.68;;
74926;SDS011;63488;48.092;-1.640;2024-01-27T03:21:33;12.02;;;6.60;;
74926;SDS011;63488;48.092;-1.640;2024-01-27T03:23:58;12.82;;;6.80;;
74926;SDS011;63488;48.092;-1.640;2024-01-27T03:26:24;11.80;;;6.47;;
74926;SDS011;63488;48.092;-1.640;2024-01-27T03:28:50;11.82;;;6.68;;
74926;SDS011;63488;48.092;-1.640;2024-01-27T03:31:15;14.68;;;6.82;;
74926;SDS011;63488;48.092;-1.640;2024-01-27T03:33:40;11.43;;;6.50;;
74926;SDS011;63488;48.092;-1.640;2024-01-27T03:36:12;13.75;;;6.82;;
74926;SDS011;63488;48.092;-1.640;2024-01-27T03:38:38;12.38;;;6.65;;
74926;SDS011;63488;48.092;-1.640;2024-01-27T03:41:04;11.50;;;6.38;;
74926;SDS011;63488;48.092;-1.640;2024-01-27T03:43:29;10.80;;;6.60;;
74926;SDS011;63488;48.092;-1.640;2024-01-27T03:45:56;11.52;;;6.53;;
74926;SDS011;63488;48.092;-1.640;2024-01-27T03:48:21;10.32;;;6.53;;
74926;SDS011;63488;48.092;-1.640;2024-01-27T03:50:46;11.98;;;6.22;;
74926;SDS011;63488;48.092;-1.640;2024-01-27T03:53:12;13.43;;;6.95;;
74926;SDS011;63488;48.092;-1.640;2024-01-27T03:55:37;11.07;;;6.22;;
74926;SDS011;63488;48.092;-1.640;2024-01-27T03:58:03;11.38;;;6.40;;
74926;SDS011;63488;48.092;-1.640;2024-01-27T04:00:28;13.00;;;6.55;;
74926;SDS011;63488;48.092;-1.640;2024-01-27T04:02:57;15.93;;;6.95;;
74926;SDS011;63488;48.092;-1.640;2024-01-27T04:05:23;11.50;;;6.97;;
74926;SDS011;63488;48.092;-1.640;2024-01-27T04:07:48;10.95;;;6.32;;
74926;SDS011;63488;48.092;-1.640;2024-01-27T04:10:16;10.45;;;6.03;;
74926;SDS011;63488;48.092;-1.640;2024-01-27T04:12:42;11.30;;;6.30;;
74926;SDS011;63488;48.092;-1.640;2024-01-27T04:15:08;13.93;;;6.45;;
74926;SDS011;63488;48.092;-1.640;2024-01-27T04:17:33;12.02;;;5.70;;
74926;SDS011;63488;48.092;-1.640;2024-01-27T04:19:58;14.80;;;5.65;;
74926;SDS011;63488;48.092;-1.640;2024-01-27T04:22:24;10.38;;;6.07;;
74926;SDS011;63488;48.092;-1.640;2024-01-27T04:24:49;11.60;;;5.85;;
74926;SDS011;63488;48.092;-1.640;2024-01-27T04:27:14;11.32;;;5.65;;
74926;SDS011;63488;48.092;-1.640;2024-01-27T04:29:40;9.48;;;5.53;;
74926;SDS011;63488;48.092;-1.640;2024-01-27T04:32:06;8.73;;;5.20;;
74926;SDS011;63488;48.092;-1.640;2024-01-27T04:34:32;10.45;;;5.70;;
74926;SDS011;63488;48.092;-1.640;2024-01-27T04:36:57;11.32;;;5.55;;
74926;SDS011;63488;48.092;-1.640;2024-01-27T04:39:22;12.48;;;5.30;;
74926;SDS011;63488;48.092;-1.640;2024-01-27T04:41:48;9.55;;;5.20;;
74926;SDS011;63488;48.092;-1.640;2024-01-27T04:44:14;10.23;;;5.65;;
74926;SDS011;63488;48.092;-1.640;2024-01-27T04:46:39;11.70;;;5.18;;
74926;SDS011;63488;48.092;-1.640;2024-01-27T04:49:04;12.10;;;5.35;;
74926;SDS011;63488;48.092;-1.640;2024-01-27T04:51:30;9.40;;;4.47;;
74926;SDS011;63488;48.092;-1.640;2024-01-27T04:53:55;10.98;;;4.60;;
74926;SDS011;63488;48.092;-1.640;2024-01-27T04:56:20;7.95;;;3.85;;
74926;SDS011;63488;48.092;-1.640;2024-01-27T04:58:46;9.45;;;3.92;;
74926;SDS011;63488;48.092;-1.640;2024-01-27T05:01:11;8.23;;;3.90;;
74926;SDS011;63488;48.092;-1.640;2024-01-27T05:03:36;8.48;;;4.00;;
74926;SDS011;63488;48.092;-1.640;2024-01-27T05:06:02;9.68;;;4.32;;
74926;SDS011;63488;48.092;-1.640;2024-01-27T05:08:27;7.68;;;3.90;;
74926;SDS011;63488;48.092;-1.640;2024-01-27T05:10:53;7.97;;;4.05;;
74926;SDS011;63488;48.092;-1.640;2024-01-27T05:13:18;10.13;;;4.10;;
74926;SDS011;63488;48.092;-1.640;2024-01-27T05:15:43;10.98;;;4.68;;
74926;SDS011;63488;48.092;-1.640;2024-01-27T05:18:08;8.77;;;4.05;;
74926;SDS011;63488;48.092;-1.640;2024-01-27T05:20:35;5.97;;;3.30;;
74926;SDS011;63488;48.092;-1.640;2024-01-27T05:23:00;6.47;;;3.90;;
74926;SDS011;63488;48.092;-1.640;2024-01-27T05:25:25;7.97;;;4.00;;
74926;SDS011;63488;48.092;-1.640;2024-01-27T05:27:51;6.95;;;3.10;;
74926;SDS011;63488;48.092;-1.640;2024-01-27T05:30:16;7.07;;;2.70;;
74926;SDS011;63488;48.092;-1.640;2024-01-27T05:32:42;8.50;;;3.25;;
74926;SDS011;63488;48.092;-1.640;2024-01-27T05:35:07;8.00;;;2.90;;
74926;SDS011;63488;48.092;-1.640;2024-01-27T05:37:33;9.30;;;2.47;;
74926;SDS011;63488;48.092;-1.640;2024-01-27T05:39:58;5.78;;;2.20;;
74926;SDS011;63488;48.092;-1.640;2024-01-27T05:42:23;7.43;;;2.42;;
74926;SDS011;63488;48.092;-1.640;2024-01-27T05:44:49;8.45;;;2.53;;
74926;SDS011;63488;48.092;-1.640;2024-01-27T05:47:14;7.88;;;2.25;;
74926;SDS011;63488;48.092;-1.640;2024-01-27T05:49:39;7.53;;;2.22;;
74926;SDS011;63488;48.092;-1.640;2024-01-27T05:52:05;7.30;;;2.20;;
74926;SDS011;63488;48.092;-1.640;2024-01-27T05:54:30;6.88;;;1.98;;
74926;SDS011;63488;48.092;-1.640;2024-01-27T05:56:55;7.68;;;2.28;;
74926;SDS011;63488;48.092;-1.640;2024-01-27T05:59:21;8.55;;;2.20;;
74926;SDS011;63488;48.092;-1.640;2024-01-27T06:01:46;7.75;;;2.10;;
74926;SDS011;63488;48.092;-1.640;2024-01-27T06:04:12;7.00;;;1.98;;
74926;SDS011;63488;48.092;-1.640;2024-01-27T06:06:40;6.07;;;2.17;;
74926;SDS011;63488;48.092;-1.640;2024-01-27T06:09:06;6.10;;;2.00;;
74926;SDS011;63488;48.092;-1.640;2024-01-27T06:11:31;7.30;;;1.92;;
74926;SDS011;63488;48.092;-1.640;2024-01-27T06:13:56;6.57;;;1.90;;
74926;SDS011;63488;48.092;-1.640;2024-01-27T06:16:23;5.45;;;1.77;;
74926;SDS011;63488;48.092;-1.640;2024-01-27T06:18:48;6.47;;;1.83;;
74926;SDS011;63488;48.092;-1.640;2024-01-27T06:21:14;5.80;;;1.98;;
74926;SDS011;63488;48.092;-1.640;2024-01-27T06:23:39;6.72;;;1.83;;
74926;SDS011;63488;48.092;-1.640;2024-01-27T06:26:07;6.55;;;2.08;;
74926;SDS011;63488;48.092;-1.640;2024-01-27T06:28:33;7.57;;;1.98;;
74926;SDS011;63488;48.092;-1.640;2024-01-27T06:30:59;5.57;;;1.90;;
74926;SDS011;63488;48.092;-1.640;2024-01-27T06:33:25;9.10;;;2.25;;
74926;SDS011;63488;48.092;-1.640;2024-01-27T06:35:50;8.38;;;2.13;;
74926;SDS011;63488;48.092;-1.640;2024-01-27T06:38:15;6.72;;;2.38;;
74926;SDS011;63488;48.092;-1.640;2024-01-27T06:40:41;7.05;;;1.90;;
74926;SDS011;63488;48.092;-1.640;2024-01-27T06:43:06;7.30;;;2.10;;
74926;SDS011;63488;48.092;-1.640;2024-01-27T06:45:31;4.60;;;2.00;;
74926;SDS011;63488;48.092;-1.640;2024-01-27T06:47:57;8.10;;;2.22;;
74926;SDS011;63488;48.092;-1.640;2024-01-27T06:50:22;5.97;;;1.95;;
74926;SDS011;63488;48.092;-1.640;2024-01-27T06:52:48;8.70;;;2.20;;
74926;SDS011;63488;48.092;-1.640;2024-01-27T06:55:13;7.50;;;1.90;;
74926;SDS011;63488;48.092;-1.640;2024-01-27T06:57:38;9.18;;;2.35;;
74926;SDS011;63488;48.092;-1.640;2024-01-27T07:00:06;7.47;;;1.90;;
74926;SDS011;63488;48.092;-1.640;2024-01-27T07:02:31;7.00;;;1.90;;
74926;SDS011;63488;48.092;-1.640;2024-01-27T07:04:56;7.13;;;2.00;;
74926;SDS011;63488;48.092;-1.640;2024-01-27T07:07:24;5.55;;;1.98;;
74926;SDS011;63488;48.092;-1.640;2024-01-27T07:09:49;7.45;;;2.45;;
74926;SDS011;63488;48.092;-1.640;2024-01-27T07:12:15;8.20;;;2.25;;
74926;SDS011;63488;48.092;-1.640;2024-01-27T07:14:40;7.22;;;1.90;;
74926;SDS011;63488;48.092;-1.640;2024-01-27T07:17:06;9.02;;;2.38;;
74926;SDS011;63488;48.092;-1.640;2024-01-27T07:19:31;7.70;;;2.60;;
74926;SDS011;63488;48.092;-1.640;2024-01-27T07:21:57;7.10;;;1.75;;
74926;SDS011;63488;48.092;-1.640;2024-01-27T07:24:22;6.25;;;1.73;;
74926;SDS011;63488;48.092;-1.640;2024-01-27T07:26:47;6.65;;;2.00;;
74926;SDS011;63488;48.092;-1.640;2024-01-27T07:29:13;7.30;;;2.00;;
74926;SDS011;63488;48.092;-1.640;2024-01-27T07:31:38;8.80;;;1.77;;
74926;SDS011;63488;48.092;-1.640;2024-01-27T07:34:04;6.65;;;1.83;;
74926;SDS011;63488;48.092;-1.640;2024-01-27T07:36:31;7.57;;;2.05;;
74926;SDS011;63488;48.092;-1.640;2024-01-27T07:38:57;4.93;;;1.92;;
74926;SDS011;63488;48.092;-1.640;2024-01-27T07:41:23;7.30;;;2.17;;
74926;SDS011;63488;48.092;-1.640;2024-01-27T07:43:48;5.85;;;1.85;;
74926;SDS011;63488;48.092;-1.640;2024-01-27T07:46:13;6.90;;;2.08;;
74926;SDS011;63488;48.092;-1.640;2024-01-27T07:48:38;7.65;;;1.98;;
74926;SDS011;63488;48.092;-1.640;2024-01-27T07:51:04;7.30;;;1.83;;
74926;SDS011;63488;48.092;-1.640;2024-01-27T07:53:29;7.05;;;1.88;;
74926;SDS011;63488;48.092;-1.640;2024-01-27T07:55:55;6.47;;;1.63;;
74926;SDS011;63488;48.092;-1.640;2024-01-27T07:58:21;5.75;;;1.80;;
74926;SDS011;63488;48.092;-1.640;2024-01-27T08:00:46;7.85;;;2.03;;
74926;SDS011;63488;48.092;-1.640;2024-01-27T08:03:12;7.20;;;2.10;;
74926;SDS011;63488;48.092;-1.640;2024-01-27T08:05:37;6.20;;;1.90;;
74926;SDS011;63488;48.092;-1.640;2024-01-27T08:08:03;5.60;;;2.00;;
74926;SDS011;63488;48.092;-1.640;2024-01-27T08:10:28;5.07;;;1.92;;
74926;SDS011;63488;48.092;-1.640;2024-01-27T08:12:54;7.35;;;2.80;;
74926;SDS011;63488;48.092;-1.640;2024-01-27T08:15:19;5.63;;;1.98;;
74926;SDS011;63488;48.092;-1.640;2024-01-27T08:17:44;8.73;;;2.33;;
74926;SDS011;63488;48.092;-1.640;2024-01-27T08:20:10;5.63;;;2.10;;
74926;SDS011;63488;48.092;-1.640;2024-01-27T08:22:35;6.75;;;2.00;;
74926;SDS011;63488;48.092;-1.640;2024-01-27T08:25:01;5.97;;;1.90;;
74926;SDS011;63488;48.092;-1.640;2024-01-27T08:27:26;7.35;;;2.30;;
74926;SDS011;63488;48.092;-1.640;2024-01-27T08:29:51;7.43;;;2.20;;
74926;SDS011;63488;48.092;-1.640;2024-01-27T08:32:17;6.10;;;2.20;;
74926;SDS011;63488;48.092;-1.640;2024-01-27T08:34:43;6.80;;;2.10;;
74926;SDS011;63488;48.092;-1.640;2024-01-27T08:37:15;7.70;;;2.08;;
74926;SDS011;63488;48.092;-1.640;2024-01-27T08:39:43;6.70;;;2.33;;
74926;SDS011;63488;48.092;-1.640;2024-01-27T08:42:08;7.53;;;2.20;;
74926;SDS011;63488;48.092;-1.640;2024-01-27T08:44:34;10.30;;;2.38;;
74926;SDS011;63488;48.092;-1.640;2024-01-27T08:46:59;6.53;;;2.72;;
74926;SDS011;63488;48.092;-1.640;2024-01-27T08:49:24;7.72;;;2.17;;
74926;SDS011;63488;48.092;-1.640;2024-01-27T08:51:50;8.88;;;2.42;;
74926;SDS011;63488;48.092;-1.640;2024-01-27T08:54:15;6.55;;;1.77;;
74926;SDS011;63488;48.092;-1.640;2024-01-27T08:56:40;6.72;;;1.88;;
74926;SDS011;63488;48.092;-1.640;2024-01-27T08:59:06;7.43;;;2.42;;
74926;SDS011;63488;48.092;-1.640;2024-01-27T09:01:31;7.30;;;2.25;;
74926;SDS011;63488;48.092;-1.640;2024-01-27T09:03:57;7.03;;;2.00;;
74926;SDS011;63488;48.092;-1.640;2024-01-27T09:06:22;6.80;;;2.28;;
74926;SDS011;63488;48.092;-1.640;2024-01-27T09:08:48;6.07;;;2.60;;
74926;SDS011;63488;48.092;-1.640;2024-01-27T09:11:13;9.57;;;2.75;;
74926;SDS011;63488;48.092;-1.640;2024-01-27T09:13:38;9.52;;;2.50;;
74926;SDS011;63488;48.092;-1.640;2024-01-27T09:16:04;7.78;;;2.50;;
74926;SDS011;63488;48.092;-1.640;2024-01-27T09:18:29;7.32;;;2.63;;
74926;SDS011;63488;48.092;-1.640;2024-01-27T09:20:54;7.70;;;2.47;;
74926;SDS011;63488;48.092;-1.640;2024-01-27T09:23:20;6.68;;;2.22;;
74926;SDS011;63488;48.092;-1.640;2024-01-27T09:25:45;10.05;;;2.17;;
74926;SDS011;63488;48.092;-1.640;2024-01-27T09:28:10;11.18;;;2.50;;
74926;SDS011;63488;48.092;-1.640;2024-01-27T09:30:37;8.55;;;1.98;;
74926;SDS011;63488;48.092;-1.640;2024-01-27T09:33:02;7.78;;;2.55;;
74926;SDS011;63488;48.092;-1.640;2024-01-27T09:35:27;7.10;;;2.20;;
74926;SDS011;63488;48.092;-1.640;2024-01-27T09:37:53;7.90;;;2.35;;
74926;SDS011;63488;48.092;-1.640;2024-01-27T09:40:18;7.95;;;2.10;;
74926;SDS011;63488;48.092;-1.640;2024-01-27T09:42:46;9.38;;;2.55;;
74926;SDS011;63488;48.092;-1.640;2024-01-27T09:45:15;7.03;;;1.70;;
74926;SDS011;63488;48.092;-1.640;2024-01-27T09:47:41;7.35;;;2.22;;
74926;SDS011;63488;48.092;-1.640;2024-01-27T09:50:07;7.43;;;2.05;;
74926;SDS011;63488;48.092;-1.640;2024-01-27T09:52:34;8.43;;;2.28;;
74926;SDS011;63488;48.092;-1.640;2024-01-27T09:55:00;6.25;;;1.90;;
74926;SDS011;63488;48.092;-1.640;2024-01-27T09:57:25;8.20;;;2.10;;
74926;SDS011;63488;48.092;-1.640;2024-01-27T09:59:51;6.13;;;1.88;;
74926;SDS011;63488;48.092;-1.640;2024-01-27T10:02:16;6.35;;;2.03;;
74926;SDS011;63488;48.092;-1.640;2024-01-27T10:04:42;5.60;;;1.90;;
74926;SDS011;63488;48.092;-1.640;2024-01-27T10:07:09;5.70;;;2.10;;
74926;SDS011;63488;48.092;-1.640;2024-01-27T10:09:34;7.60;;;2.00;;
74926;SDS011;63488;48.092;-1.640;2024-01-27T10:12:00;6.47;;;2.10;;
74926;SDS011;63488;48.092;-1.640;2024-01-27T10:14:26;6.25;;;2.25;;
74926;SDS011;63488;48.092;-1.640;2024-01-27T10:16:51;7.25;;;2.30;;
74926;SDS011;63488;48.092;-1.640;2024-01-27T10:19:17;6.88;;;2.20;;
74926;SDS011;63488;48.092;-1.640;2024-01-27T10:21:43;8.13;;;2.55;;
74926;SDS011;63488;48.092;-1.640;2024-01-27T10:24:09;7.10;;;2.40;;
74926;SDS011;63488;48.092;-1.640;2024-01-27T10:26:34;8.70;;;2.28;;
74926;SDS011;63488;48.092;-1.640;2024-01-27T10:29:00;8.82;;;2.38;;
74926;SDS011;63488;48.092;-1.640;2024-01-27T10:31:30;5.38;;;2.25;;
74926;SDS011;63488;48.092;-1.640;2024-01-27T10:33:56;6.80;;;2.00;;
74926;SDS011;63488;48.092;-1.640;2024-01-27T10:36:21;7.82;;;2.10;;
74926;SDS011;63488;48.092;-1.640;2024-01-27T10:38:47;5.45;;;2.08;;
74926;SDS011;63488;48.092;-1.640;2024-01-27T10:41:12;7.20;;;2.00;;
74926;SDS011;63488;48.092;-1.640;2024-01-27T10:43:41;6.50;;;2.03;;
74926;SDS011;63488;48.092;-1.640;2024-01-27T10:46:08;7.43;;;2.08;;
74926;SDS011;63488;48.092;-1.640;2024-01-27T10:48:36;7.80;;;1.98;;
74926;SDS011;63488;48.092;-1.640;2024-01-27T10:51:03;5.65;;;1.75;;
74926;SDS011;63488;48.092;-1.640;2024-01-27T10:53:32;8.15;;;1.92;;
74926;SDS011;63488;48.092;-1.640;2024-01-27T10:56:00;8.77;;;2.28;;
74926;SDS011;63488;48.092;-1.640;2024-01-27T10:58:26;7.18;;;2.55;;
74926;SDS011;63488;48.092;-1.640;2024-01-27T11:00:52;6.55;;;2.50;;
74926;SDS011;63488;48.092;-1.640;2024-01-27T11:03:18;9.32;;;2.55;;
74926;SDS011;63488;48.092;-1.640;2024-01-27T11:05:44;4.88;;;2.25;;
74926;SDS011;63488;48.092;-1.640;2024-01-27T11:08:11;5.70;;;1.73;;
74926;SDS011;63488;48.092;-1.640;2024-01-27T11:10:37;5.55;;;2.08;;
74926;SDS011;63488;48.092;-1.640;2024-01-27T11:13:03;5.60;;;1.92;;
74926;SDS011;63488;48.092;-1.640;2024-01-27T11:15:29;6.28;;;2.58;;
74926;SDS011;63488;48.092;-1.640;2024-01-27T11:17:58;6.88;;;1.77;;
74926;SDS011;63488;48.092;-1.640;2024-01-27T11:20:30;6.22;;;2.03;;
74926;SDS011;63488;48.092;-1.640;2024-01-27T11:22:56;5.60;;;2.00;;
74926;SDS011;63488;48.092;-1.640;2024-01-27T11:25:33;6.45;;;2.08;;
74926;SDS011;63488;48.092;-1.640;2024-01-27T11:27:58;5.18;;;1.88;;
74926;SDS011;63488;48.092;-1.640;2024-01-27T11:30:30;5.10;;;2.00;;
74926;SDS011;63488;48.092;-1.640;2024-01-27T11:32:57;4.85;;;1.92;;
74926;SDS011;63488;48.092;-1.640;2024-01-27T11:35:23;6.32;;;2.00;;
74926;SDS011;63488;48.092;-1.640;2024-01-27T11:37:49;6.07;;;2.17;;
74926;SDS011;63488;48.092;-1.640;2024-01-27T11:40:14;5.60;;;2.28;;
74926;SDS011;63488;48.092;-1.640;2024-01-27T11:42:40;5.10;;;2.00;;
74926;SDS011;63488;48.092;-1.640;2024-01-27T11:45:07;5.30;;;2.00;;
74926;SDS011;63488;48.092;-1.640;2024-01-27T11:47:32;6.20;;;2.20;;
74926;SDS011;63488;48.092;-1.640;2024-01-27T11:49:58;10.13;;;3.17;;
74926;SDS011;63488;48.092;-1.640;2024-01-27T11:52:24;7.25;;;2.10;;
74926;SDS011;63488;48.092;-1.640;2024-01-27T11:54:56;7.07;;;2.15;;
74926;SDS011;63488;48.092;-1.640;2024-01-27T11:57:21;5.43;;;1.90;;
74926;SDS011;63488;48.092;-1.640;2024-01-27T11:59:47;8.85;;;1.98;;
74926;SDS011;63488;48.092;-1.640;2024-01-27T12:02:12;8.63;;;2.85;;
74926;SDS011;63488;48.092;-1.640;2024-01-27T12:04:38;9.45;;;2.65;;
74926;SDS011;63488;48.092;-1.640;2024-01-27T12:07:03;6.05;;;2.63;;
74926;SDS011;63488;48.092;-1.640;2024-01-27T12:09:28;8.48;;;2.45;;
74926;SDS011;63488;48.092;-1.640;2024-01-27T12:11:54;8.40;;;2.50;;
74926;SDS011;63488;48.092;-1.640;2024-01-27T12:14:19;7.93;;;2.42;;
74926;SDS011;63488;48.092;-1.640;2024-01-27T12:16:44;5.40;;;2.20;;
74926;SDS011;63488;48.092;-1.640;2024-01-27T12:19:10;5.20;;;2.28;;
74926;SDS011;63488;48.092;-1.640;2024-01-27T12:21:36;8.73;;;2.40;;
74926;SDS011;63488;48.092;-1.640;2024-01-27T12:24:01;7.95;;;2.33;;
74926;SDS011;63488;48.092;-1.640;2024-01-27T12:26:28;6.05;;;2.13;;
74926;SDS011;63488;48.092;-1.640;2024-01-27T12:28:54;6.35;;;2.00;;
74926;SDS011;63488;48.092;-1.640;2024-01-27T12:31:20;7.50;;;2.10;;
74926;SDS011;63488;48.092;-1.640;2024-01-27T12:33:54;7.93;;;2.20;;
74926;SDS011;63488;48.092;-1.640;2024-01-27T12:36:20;7.07;;;2.20;;
74926;SDS011;63488;48.092;-1.640;2024-01-27T12:39:07;6.45;;;2.10;;
74926;SDS011;63488;48.092;-1.640;2024-01-27T12:41:31;8.07;;;2.42;;
74926;SDS011;63488;48.092;-1.640;2024-01-27T12:43:58;5.60;;;1.95;;
74926;SDS011;63488;48.092;-1.640;2024-01-27T12:46:24;7.85;;;2.15;;
74926;SDS011;63488;48.092;-1.640;2024-01-27T12:48:49;5.50;;;2.20;;
74926;SDS011;63488;48.092;-1.640;2024-01-27T12:51:14;7.05;;;2.35;;
74926;SDS011;63488;48.092;-1.640;2024-01-27T12:53:41;8.23;;;2.30;;
74926;SDS011;63488;48.092;-1.640;2024-01-27T12:56:10;6.55;;;2.17;;
74926;SDS011;63488;48.092;-1.640;2024-01-27T12:58:36;6.53;;;2.15;;
74926;SDS011;63488;48.092;-1.640;2024-01-27T13:01:01;4.32;;;1.83;;
74926;SDS011;63488;48.092;-1.640;2024-01-27T13:03:27;6.40;;;2.20;;
74926;SDS011;63488;48.092;-1.640;2024-01-27T13:05:53;5.38;;;1.95;;
74926;SDS011;63488;48.092;-1.640;2024-01-27T13:08:19;6.50;;;2.00;;
74926;SDS011;63488;48.092;-1.640;2024-01-27T13:10:44;6.05;;;2.47;;
74926;SDS011;63488;48.092;-1.640;2024-01-27T13:13:11;4.47;;;1.70;;
74926;SDS011;63488;48.092;-1.640;2024-01-27T13:15:37;5.55;;;1.60;;
74926;SDS011;63488;48.092;-1.640;2024-01-27T13:18:02;8.65;;;2.70;;
74926;SDS011;63488;48.092;-1.640;2024-01-27T13:20:27;6.32;;;2.08;;
74926;SDS011;63488;48.092;-1.640;2024-01-27T13:22:53;5.47;;;1.70;;
74926;SDS011;63488;48.092;-1.640;2024-01-27T13:25:19;7.53;;;2.05;;
74926;SDS011;63488;48.092;-1.640;2024-01-27T13:27:44;5.70;;;2.15;;
74926;SDS011;63488;48.092;-1.640;2024-01-27T13:30:11;7.72;;;2.17;;
74926;SDS011;63488;48.092;-1.640;2024-01-27T13:32:36;5.55;;;1.73;;
74926;SDS011;63488;48.092;-1.640;2024-01-27T13:35:01;4.63;;;1.80;;
74926;SDS011;63488;48.092;-1.640;2024-01-27T13:37:27;5.53;;;1.92;;
74926;SDS011;63488;48.092;-1.640;2024-01-27T13:39:52;5.28;;;1.75;;
74926;SDS011;63488;48.092;-1.640;2024-01-27T13:42:18;9.05;;;2.72;;
74926;SDS011;63488;48.092;-1.640;2024-01-27T13:44:43;9.25;;;2.00;;
74926;SDS011;63488;48.092;-1.640;2024-01-27T13:47:08;6.95;;;2.22;;
74926;SDS011;63488;48.092;-1.640;2024-01-27T13:49:34;7.88;;;1.83;;
74926;SDS011;63488;48.092;-1.640;2024-01-27T13:52:00;9.73;;;1.80;;
74926;SDS011;63488;48.092;-1.640;2024-01-27T13:54:25;5.68;;;1.85;;
74926;SDS011;63488;48.092;-1.640;2024-01-27T13:56:51;6.22;;;1.80;;
74926;SDS011;63488;48.092;-1.640;2024-01-27T13:59:16;4.63;;;1.50;;
74926;SDS011;63488;48.092;-1.640;2024-01-27T14:01:41;5.90;;;1.63;;
74926;SDS011;63488;48.092;-1.640;2024-01-27T14:04:07;5.95;;;1.85;;
74926;SDS011;63488;48.092;-1.640;2024-01-27T14:06:33;6.07;;;1.77;;
74926;SDS011;63488;48.092;-1.640;2024-01-27T14:08:58;6.55;;;1.90;;
74926;SDS011;63488;48.092;-1.640;2024-01-27T14:11:24;7.10;;;2.20;;
74926;SDS011;63488;48.092;-1.640;2024-01-27T14:13:50;6.18;;;1.83;;
74926;SDS011;63488;48.092;-1.640;2024-01-27T14:16:15;5.43;;;1.67;;
74926;SDS011;63488;48.092;-1.640;2024-01-27T14:18:41;5.63;;;2.00;;
74926;SDS011;63488;48.092;-1.640;2024-01-27T14:21:07;4.72;;;1.88;;